Time;durP1;ratioP1;P1;durP2;ratioP2;P2;SDS_P1;SDS_P2;PMS_P1;PMS_P2;Temp;Humidity;BMP_temperature;BMP_pressure;BME280_temperature;BME280_humidity;BME280_pressure;Samples;Min_cycle;Max_cycle;Signal;HPM_P1;HPM_P2
2022/07/03 00:01:08;;;;;;;1.67;1.13;;;17.40;71.80;;;;;;5034941;28;20542;-75
2022/07/03 00:03:34;;;;;;;1.80;1.40;;;17.40;71.70;;;;;;5001266;28;20048;-75
2022/07/03 00:05:59;;;;;;;1.73;1.27;;;17.50;71.70;;;;;;5034415;28;20474;-76
2022/07/03 00:08:25;;;;;;;4.82;1.55;;;17.50;71.40;;;;;;5035468;28;20033;-75
2022/07/03 00:10:51;;;;;;;7.60;1.40;;;17.50;71.40;;;;;;5034445;28;20505;-75
2022/07/03 00:13:16;;;;;;;1.50;1.40;;;17.50;71.30;;;;;;5034184;28;20544;-76
2022/07/03 00:15:43;;;;;;;2.90;1.30;;;17.50;71.30;;;;;;5034168;28;20029;-76
2022/07/03 00:18:09;;;;;;;2.17;1.20;;;17.40;71.50;;;;;;5034576;28;20021;-75
2022/07/03 00:20:47;;;;;;;1.60;1.50;;;17.40;71.70;;;;;;5017813;28;20068;-75
2022/07/03 00:23:17;;;;;;;5.22;1.38;;;17.40;71.40;;;;;;5002239;28;20022;-74
2022/07/03 00:25:44;;;;;;;1.45;1.27;;;17.40;71.50;;;;;;5017496;28;20036;-75
2022/07/03 00:28:10;;;;;;;3.08;1.40;;;17.40;71.30;;;;;;5017849;28;20488;-75
2022/07/03 00:30:36;;;;;;;1.38;1.20;;;17.40;71.40;;;;;;5017679;28;20037;-75
2022/07/03 00:33:06;;;;;;;3.70;1.48;;;17.50;71.30;;;;;;5017441;28;20433;-75
2022/07/03 00:35:34;;;;;;;4.18;1.27;;;17.50;71.00;;;;;;5017606;28;20026;-75
2022/07/03 00:38:01;;;;;;;1.77;1.20;;;17.60;70.90;;;;;;5017480;28;20202;-75
2022/07/03 00:40:26;;;;;;;2.88;1.20;;;17.60;70.60;;;;;;5017006;28;20021;-74
2022/07/03 00:42:53;;;;;;;4.07;1.70;;;17.60;70.60;;;;;;5033999;28;20026;-74
2022/07/03 00:45:20;;;;;;;3.83;1.08;;;17.60;70.50;;;;;;5017301;28;20022;-76
2022/07/03 00:47:47;;;;;;;2.80;1.50;;;17.50;70.90;;;;;;5016874;28;20032;-74
2022/07/03 00:50:13;;;;;;;1.73;1.13;;;17.50;71.00;;;;;;5017314;28;20029;-74
2022/07/03 00:52:44;;;;;;;3.15;1.45;;;17.50;71.00;;;;;;5033689;28;20025;-74
2022/07/03 00:55:16;;;;;;;2.30;1.38;;;17.50;71.40;;;;;;5017199;28;20120;-75
2022/07/03 00:57:46;;;;;;;3.25;1.10;;;17.50;71.40;;;;;;5017508;28;20029;-75
2022/07/03 01:00:14;;;;;;;3.15;1.05;;;17.50;71.10;;;;;;5016968;28;20112;-76
2022/07/03 01:02:42;;;;;;;2.63;1.13;;;17.50;71.20;;;;;;5017044;28;20026;-76
2022/07/03 01:05:11;;;;;;;1.83;1.30;;;17.50;71.00;;;;;;5017035;28;20030;-76
2022/07/03 01:07:41;;;;;;;3.45;1.20;;;17.50;71.20;;;;;;5016895;28;20025;-76
2022/07/03 01:10:31;;;;;;;2.20;1.30;;;17.50;71.30;;;;;;5016977;28;20079;-76
2022/07/03 01:13:24;;;;;;;3.58;1.15;;;17.40;71.70;;;;;;5016809;28;20029;-75
2022/07/03 01:16:06;;;;;;;3.65;1.67;;;17.30;71.90;;;;;;5016585;28;20496;-73
2022/07/03 01:18:45;;;;;;;2.83;1.50;;;17.20;71.80;;;;;;5016799;28;20080;-73
2022/07/03 01:21:34;;;;;;;1.13;1.10;;;17.10;72.40;;;;;;5016663;28;20025;-76
2022/07/03 01:24:19;;;;;;;1.50;1.35;;;17.10;72.60;;;;;;5016516;28;20029;-76
2022/07/03 01:26:48;;;;;;;1.48;1.20;;;17.00;72.80;;;;;;5016567;28;20458;-73
2022/07/03 01:29:22;;;;;;;3.28;1.20;;;17.00;72.90;;;;;;5016133;28;20131;-74
2022/07/03 01:31:49;;;;;;;1.88;1.70;;;17.00;73.20;;;;;;5016627;28;20025;-77
2022/07/03 01:34:18;;;;;;;1.83;1.63;;;16.90;73.80;;;;;;5032628;28;20032;-77
2022/07/03 01:36:47;;;;;;;3.00;1.20;;;16.80;74.00;;;;;;5016742;28;20017;-73
2022/07/03 01:39:16;;;;;;;3.90;1.17;;;16.70;74.30;;;;;;5016479;28;20022;-74
2022/07/03 01:41:44;;;;;;;2.22;1.42;;;16.70;74.30;;;;;;5016558;28;20481;-74
2022/07/03 01:44:14;;;;;;;3.92;1.67;;;16.80;74.20;;;;;;5015519;28;20061;-74
2022/07/03 01:46:43;;;;;;;1.83;1.35;;;16.70;74.20;;;;;;5016074;28;20022;-73
2022/07/03 01:49:10;;;;;;;2.38;1.73;;;16.70;74.30;;;;;;5016202;28;20038;-74
2022/07/03 01:51:39;;;;;;;2.85;1.98;;;16.70;74.70;;;;;;5017432;28;20025;-75
2022/07/03 01:54:09;;;;;;;2.58;1.50;;;16.60;74.70;;;;;;5035149;28;20033;-76
2022/07/03 01:56:35;;;;;;;1.73;1.25;;;16.60;74.80;;;;;;5025424;28;20083;-76
2022/07/03 01:59:02;;;;;;;1.33;1.20;;;16.60;74.80;;;;;;5041656;28;20529;-76
2022/07/03 02:01:51;;;;;;;3.58;1.50;;;16.50;75.20;;;;;;5016066;28;20479;-74
2022/07/03 02:04:41;;;;;;;2.40;1.60;;;16.40;75.60;;;;;;5016075;28;20029;-74
2022/07/03 02:07:34;;;;;;;2.47;1.20;;;16.40;75.80;;;;;;5015856;28;20037;-74
2022/07/03 02:10:06;;;;;;;1.50;1.40;;;16.40;75.90;;;;;;5015453;28;20080;-75
2022/07/03 02:12:53;;;;;;;1.73;1.30;;;16.40;75.70;;;;;;5033508;28;20022;-74
2022/07/03 02:15:28;;;;;;;3.45;1.70;;;16.40;75.80;;;;;;5015823;28;20029;-75
2022/07/03 02:17:56;;;;;;;1.52;1.42;;;16.40;76.00;;;;;;5015706;28;20521;-75
2022/07/03 02:20:22;;;;;;;1.70;1.23;;;16.40;76.00;;;;;;5015990;28;20042;-74
2022/07/03 02:23:02;;;;;;;3.00;1.70;;;16.40;75.70;;;;;;5015331;28;20059;-76
2022/07/03 02:25:41;;;;;;;1.30;1.20;;;16.40;75.70;;;;;;5033474;28;20437;-76
2022/07/03 02:28:35;;;;;;;1.63;1.40;;;16.30;76.00;;;;;;5016033;28;20074;-76
2022/07/03 02:31:03;;;;;;;2.15;1.30;;;16.30;76.20;;;;;;5015847;28;20110;-76
2022/07/03 02:33:31;;;;;;;5.65;1.85;;;16.30;76.50;;;;;;5015366;28;20022;-76
2022/07/03 02:35:57;;;;;;;1.95;1.45;;;16.20;76.40;;;;;;5015365;28;20074;-76
2022/07/03 02:38:24;;;;;;;2.50;1.70;;;16.20;76.60;;;;;;5015447;28;20017;-76
2022/07/03 02:41:12;;;;;;;4.03;1.50;;;16.20;76.50;;;;;;5015546;28;20022;-76
2022/07/03 02:43:41;;;;;;;5.07;1.80;;;16.20;76.60;;;;;;5015498;28;20136;-76
2022/07/03 02:46:50;;;;;;;3.13;1.70;;;16.10;77.00;;;;;;5014997;28;20439;-75
2022/07/03 02:49:33;;;;;;;2.97;1.20;;;16.10;77.10;;;;;;5015064;28;20033;-75
2022/07/03 02:52:28;;;;;;;5.13;1.60;;;16.10;77.00;;;;;;5015359;28;20021;-76
2022/07/03 02:54:56;;;;;;;3.70;1.70;;;16.00;77.20;;;;;;5015075;28;20032;-76
2022/07/03 02:57:22;;;;;;;3.15;1.58;;;16.00;77.50;;;;;;4999355;28;20092;-75
2022/07/03 03:00:01;;;;;;;2.47;1.42;;;16.00;77.60;;;;;;5031499;28;20029;-76
2022/07/03 03:02:33;;;;;;;2.42;1.50;;;16.00;77.60;;;;;;5015130;28;20116;-76
2022/07/03 03:05:20;;;;;;;2.05;1.30;;;16.00;77.60;;;;;;5014921;28;20072;-76
2022/07/03 03:08:19;;;;;;;3.10;1.50;;;15.90;77.50;;;;;;5015064;28;20470;-76
2022/07/03 03:10:48;;;;;;;1.90;1.70;;;15.90;77.70;;;;;;5032302;28;20060;-76
2022/07/03 03:13:19;;;;;;;2.58;1.50;;;15.90;78.00;;;;;;5014897;28;20079;-77
2022/07/03 03:16:09;;;;;;;1.70;1.30;;;15.90;78.10;;;;;;5014759;28;20076;-76
2022/07/03 03:18:40;;;;;;;2.65;1.73;;;15.90;78.30;;;;;;5014634;28;20112;-76
2022/07/03 03:21:09;;;;;;;2.70;1.65;;;15.80;78.10;;;;;;5014978;28;20421;-75
2022/07/03 03:23:48;;;;;;;2.42;1.88;;;15.90;78.20;;;;;;5014372;28;20022;-75
2022/07/03 03:26:16;;;;;;;3.00;1.58;;;15.90;78.30;;;;;;5014957;28;20026;-75
2022/07/03 03:28:42;;;;;;;3.00;1.70;;;15.80;78.20;;;;;;5014367;28;20533;-75
2022/07/03 03:31:11;;;;;;;3.30;1.83;;;15.80;78.20;;;;;;5031075;28;20124;-75
2022/07/03 03:33:40;;;;;;;2.80;1.90;;;15.90;78.20;;;;;;5014884;28;20079;-75
2022/07/03 03:36:07;;;;;;;2.13;1.80;;;15.90;78.20;;;;;;4998779;28;20124;-75
2022/07/03 03:38:33;;;;;;;1.83;1.35;;;15.90;78.30;;;;;;5014640;28;20510;-75
2022/07/03 03:40:59;;;;;;;3.33;1.50;;;16.00;77.90;;;;;;5031049;28;20021;-75
2022/07/03 03:43:25;;;;;;;3.67;1.60;;;16.00;77.60;;;;;;5014364;28;20021;-75
2022/07/03 03:45:51;;;;;;;2.08;1.50;;;16.10;77.60;;;;;;5030998;28;20029;-75
2022/07/03 03:48:16;;;;;;;2.83;1.90;;;16.10;77.20;;;;;;5031348;28;20025;-75
2022/07/03 03:50:43;;;;;;;2.10;1.60;;;16.20;77.70;;;;;;5030839;28;20033;-74
2022/07/03 03:53:10;;;;;;;3.55;1.70;;;16.20;76.50;;;;;;5031218;28;20022;-75
2022/07/03 03:55:36;;;;;;;2.88;1.77;;;16.20;76.40;;;;;;5014844;28;20026;-74
2022/07/03 03:58:01;;;;;;;3.15;2.05;;;16.10;76.80;;;;;;4997848;28;20136;-74
2022/07/03 04:00:27;;;;;;;2.80;1.83;;;16.10;77.10;;;;;;5031064;28;20089;-75
2022/07/03 04:02:53;;;;;;;3.53;1.90;;;16.00;77.20;;;;;;5031024;28;20032;-74
2022/07/03 04:05:19;;;;;;;4.65;1.80;;;16.00;77.40;;;;;;5030979;28;20028;-74
2022/07/03 04:07:44;;;;;;;4.32;1.90;;;15.90;77.80;;;;;;5032920;28;20083;-73
2022/07/03 04:10:11;;;;;;;1.75;1.60;;;16.00;77.60;;;;;;5034284;28;20110;-74
2022/07/03 04:12:36;;;;;;;6.15;1.70;;;16.00;77.50;;;;;;5033945;28;20033;-74
2022/07/03 04:15:04;;;;;;;5.50;1.63;;;16.10;77.50;;;;;;5034273;28;20087;-73
2022/07/03 04:17:29;;;;;;;3.00;1.33;;;16.20;77.00;;;;;;5018062;28;20076;-74
2022/07/03 04:19:55;;;;;;;1.58;1.35;;;16.30;76.80;;;;;;5034050;28;20470;-74
2022/07/03 04:22:21;;;;;;;3.15;1.60;;;16.40;76.40;;;;;;5033660;28;20061;-74
2022/07/03 04:24:46;;;;;;;2.55;1.90;;;16.40;76.20;;;;;;5034386;28;20025;-73
2022/07/03 04:27:12;;;;;;;1.80;1.63;;;16.40;76.00;;;;;;5034267;28;20029;-74
2022/07/03 04:29:37;;;;;;;3.00;1.65;;;16.40;76.00;;;;;;5033745;28;20040;-74
2022/07/03 04:32:03;;;;;;;3.05;1.80;;;16.40;75.70;;;;;;5033994;28;20500;-74
2022/07/03 04:34:29;;;;;;;2.38;1.90;;;16.50;75.50;;;;;;5017540;28;20048;-74
2022/07/03 04:36:55;;;;;;;2.83;2.10;;;16.50;76.20;;;;;;5034140;28;20116;-74
2022/07/03 04:39:20;;;;;;;4.38;2.50;;;16.50;75.30;;;;;;5034022;28;20029;-74
2022/07/03 04:41:46;;;;;;;6.35;2.53;;;16.50;75.50;;;;;;5033822;28;20033;-74
2022/07/03 04:44:12;;;;;;;3.42;2.35;;;16.60;75.50;;;;;;5034971;28;20189;-74
2022/07/03 04:46:40;;;;;;;2.97;2.13;;;16.60;75.10;;;;;;5033960;28;20052;-74
2022/07/03 04:49:05;;;;;;;3.97;1.92;;;16.70;75.00;;;;;;5034063;28;20124;-74
2022/07/03 04:51:31;;;;;;;2.83;1.88;;;16.80;74.80;;;;;;5034051;28;20485;-74
2022/07/03 04:53:56;;;;;;;3.40;1.85;;;16.80;74.60;;;;;;5033584;28;20040;-74
2022/07/03 04:56:22;;;;;;;6.53;1.63;;;16.90;74.60;;;;;;5033927;28;20025;-74
2022/07/03 04:58:47;;;;;;;4.15;1.50;;;17.10;74.20;;;;;;5035066;28;20032;-74
2022/07/03 05:01:13;;;;;;;1.98;1.20;;;17.10;73.60;;;;;;5041898;28;20460;-75
2022/07/03 05:03:39;;;;;;;3.78;1.63;;;17.20;73.60;;;;;;5040556;28;20028;-75
2022/07/03 05:06:05;;;;;;;4.30;1.45;;;17.30;73.50;;;;;;5035251;28;20024;-74
2022/07/03 05:08:30;;;;;;;2.10;1.10;;;17.40;73.40;;;;;;5033478;28;20505;-74
2022/07/03 05:10:56;;;;;;;3.67;1.45;;;17.60;73.20;;;;;;5032864;28;20045;-74
2022/07/03 05:13:22;;;;;;;2.22;1.20;;;17.60;73.00;;;;;;5016756;28;20022;-74
2022/07/03 05:15:47;;;;;;;1.60;1.17;;;17.70;72.90;;;;;;5017085;28;20030;-74
2022/07/03 05:18:13;;;;;;;3.13;1.60;;;17.80;72.60;;;;;;5032368;28;20462;-75
2022/07/03 05:20:38;;;;;;;2.05;1.10;;;17.90;73.50;;;;;;5033426;28;20029;-74
2022/07/03 05:23:04;;;;;;;1.00;0.90;;;18.00;72.20;;;;;;5032851;28;20478;-74
2022/07/03 05:25:31;;;;;;;1.67;0.90;;;18.10;72.00;;;;;;5033090;28;20470;-74
2022/07/03 05:27:59;;;;;;;1.98;1.02;;;18.20;71.50;;;;;;5016563;28;20021;-74
2022/07/03 05:30:26;;;;;;;1.42;0.93;;;18.30;71.00;;;;;;5000508;28;20047;-74
2022/07/03 05:32:52;;;;;;;1.30;1.20;;;18.40;70.60;;;;;;5015855;28;20070;-74
2022/07/03 05:35:17;;;;;;;1.35;1.25;;;18.60;70.30;;;;;;5016337;28;20062;-74
2022/07/03 05:37:43;;;;;;;1.45;1.00;;;18.70;70.00;;;;;;5032572;28;20033;-74
2022/07/03 05:40:12;;;;;;;2.58;0.80;;;18.80;69.60;;;;;;5016616;28;20025;-74
2022/07/03 05:42:38;;;;;;;0.80;0.80;;;18.90;69.10;;;;;;5032950;28;20084;-74
2022/07/03 05:45:05;;;;;;;1.15;1.00;;;19.10;68.60;;;;;;5032970;28;20443;-74
2022/07/03 05:47:30;;;;;;;0.90;0.90;;;19.20;68.20;;;;;;5016083;28;20025;-74
2022/07/03 05:49:56;;;;;;;1.23;0.68;;;19.30;67.40;;;;;;5032472;28;20044;-74
2022/07/03 05:52:22;;;;;;;2.42;0.50;;;19.50;67.10;;;;;;5032163;28;20343;-73
2022/07/03 05:54:48;;;;;;;0.50;0.50;;;19.60;66.80;;;;;;5016224;28;20029;-74
2022/07/03 05:57:14;;;;;;;1.40;0.80;;;19.80;66.40;;;;;;5032779;28;20026;-74
2022/07/03 05:59:39;;;;;;;1.08;0.90;;;19.90;66.00;;;;;;5032763;28;20417;-74
2022/07/03 06:02:05;;;;;;;3.45;0.75;;;20.00;66.00;;;;;;5032536;28;20028;-74
2022/07/03 06:04:32;;;;;;;1.48;0.70;;;20.10;66.00;;;;;;5032767;28;20025;-74
2022/07/03 06:06:57;;;;;;;4.43;0.95;;;20.30;65.80;;;;;;5032395;28;20474;-74
2022/07/03 06:09:25;;;;;;;2.10;0.68;;;20.30;65.60;;;;;;5031487;28;20033;-75
2022/07/03 06:11:50;;;;;;;3.22;0.73;;;20.50;65.40;;;;;;5016111;28;20034;-74
2022/07/03 06:14:17;;;;;;;0.95;0.60;;;20.60;65.10;;;;;;5032244;28;20378;-75
2022/07/03 06:16:44;;;;;;;0.77;0.77;;;20.70;66.10;;;;;;5015325;28;20032;-74
2022/07/03 06:19:10;;;;;;;0.88;0.60;;;20.90;64.80;;;;;;5032112;28;20086;-73
2022/07/03 06:21:35;;;;;;;0.85;0.50;;;21.00;64.10;;;;;;5015747;28;20120;-74
2022/07/03 06:24:01;;;;;;;1.85;0.50;;;21.20;63.50;;;;;;5031926;28;20022;-74
2022/07/03 06:26:28;;;;;;;1.05;0.50;;;21.30;62.30;;;;;;5032067;28;20037;-74
2022/07/03 06:28:55;;;;;;;1.08;0.80;;;21.40;61.20;;;;;;5031739;28;20030;-74
2022/07/03 06:31:21;;;;;;;1.23;0.55;;;21.50;60.30;;;;;;5031591;28;20066;-74
2022/07/03 06:33:46;;;;;;;0.93;0.50;;;21.60;59.10;;;;;;5031912;28;20022;-73
2022/07/03 06:36:15;;;;;;;0.60;0.60;;;21.80;58.30;;;;;;5031716;28;20033;-74
2022/07/03 06:38:40;;;;;;;0.55;0.45;;;21.80;55.30;;;;;;5032041;28;20382;-74
2022/07/03 06:41:06;;;;;;;1.70;0.40;;;22.00;55.20;;;;;;5031810;28;20024;-74
2022/07/03 06:43:31;;;;;;;0.52;0.43;;;22.10;53.00;;;;;;5031886;28;20389;-74
2022/07/03 06:45:57;;;;;;;0.63;0.60;;;22.10;52.70;;;;;;5015393;28;20083;-76
2022/07/03 06:48:22;;;;;;;1.30;0.45;;;22.20;51.30;;;;;;5032046;28;20413;-76
2022/07/03 06:50:49;;;;;;;0.35;0.35;;;22.20;46.60;;;;;;5031489;28;20366;-75
2022/07/03 06:53:14;;;;;;;2.25;0.55;;;22.20;46.00;;;;;;5015101;28;20021;-75
2022/07/03 06:55:40;;;;;;;1.60;0.40;;;22.30;45.50;;;;;;5031616;28;20029;-75
2022/07/03 06:58:06;;;;;;;1.13;0.60;;;22.40;45.70;;;;;;5031736;28;20042;-75
2022/07/03 07:00:31;;;;;;;6.00;0.40;;;22.40;44.40;;;;;;5031196;28;20025;-75
2022/07/03 07:02:57;;;;;;;1.00;0.40;;;22.50;44.10;;;;;;5031578;28;20189;-74
2022/07/03 07:05:22;;;;;;;3.10;0.52;;;22.60;44.80;;;;;;5031641;28;20018;-74
2022/07/03 07:07:49;;;;;;;1.55;0.40;;;22.70;43.70;;;;;;5031496;28;20466;-74
2022/07/03 07:10:16;;;;;;;0.40;0.40;;;22.70;42.60;;;;;;5015161;28;20046;-74
2022/07/03 07:12:41;;;;;;;2.45;0.70;;;22.80;41.50;;;;;;5031703;28;20114;-74
2022/07/03 07:15:07;;;;;;;1.48;0.65;;;22.80;43.10;;;;;;5031626;28;20482;-74
2022/07/03 07:17:33;;;;;;;1.83;0.40;;;22.90;42.80;;;;;;5031358;28;20025;-76
2022/07/03 07:19:58;;;;;;;1.58;0.52;;;23.00;41.30;;;;;;5031270;28;20408;-73
2022/07/03 07:22:25;;;;;;;0.73;0.40;;;23.10;42.50;;;;;;5031184;28;20025;-74
2022/07/03 07:24:51;;;;;;;0.30;0.30;;;23.10;37.20;;;;;;5014858;28;20034;-73
2022/07/03 07:27:16;;;;;;;2.25;0.30;;;23.20;37.90;;;;;;5014739;28;20109;-74
2022/07/03 07:29:48;;;;;;;2.70;0.57;;;23.30;38.20;;;;;;5031061;28;20366;-79
2022/07/03 07:32:14;;;;;;;1.65;0.45;;;23.40;41.80;;;;;;5014550;28;20026;-77
2022/07/03 07:34:40;;;;;;;1.05;0.40;;;23.60;38.40;;;;;;5014505;28;20029;-80
2022/07/03 07:37:06;;;;;;;2.85;0.50;;;23.50;37.00;;;;;;5014762;28;20544;-81
2022/07/03 07:39:32;;;;;;;0.60;0.38;;;23.60;37.90;;;;;;5014829;28;20080;-81
2022/07/03 07:42:02;;;;;;;0.60;0.30;;;23.60;36.40;;;;;;5016560;28;20026;-80
2022/07/03 07:44:30;;;;;;;0.45;0.40;;;23.60;36.60;;;;;;5019593;28;20071;-78
2022/07/03 07:46:55;;;;;;;1.05;0.30;;;23.60;36.10;;;;;;5035268;28;20133;-78
2022/07/03 07:49:26;;;;;;;1.50;0.40;;;23.70;35.50;;;;;;5035870;28;20522;-82
2022/07/03 07:52:00;;;;;;;2.47;1.90;;;23.50;34.00;;;;;;5003062;28;20549;-82
2022/07/03 07:54:26;;;;;;;2.03;0.40;;;23.60;34.60;;;;;;5035230;28;20437;-81
2022/07/03 07:56:52;;;;;;;1.40;0.60;;;23.60;35.50;;;;;;5002410;28;20401;-80
2022/07/03 07:59:18;;;;;;;1.27;0.30;;;23.70;35.00;;;;;;5034891;28;20026;-80
2022/07/03 08:07:12;;;;;;;2.80;0.45;;;23.70;34.30;;;;;;5035932;28;20048;-80
2022/07/03 08:09:37;;;;;;;0.30;0.30;;;23.70;34.30;;;;;;5035021;28;20050;-83
2022/07/03 08:12:04;;;;;;;0.40;0.20;;;23.80;35.40;;;;;;5034395;28;20469;-80
2022/07/03 08:14:29;;;;;;;0.57;0.40;;;23.80;35.80;;;;;;5001461;28;20033;-80
2022/07/03 08:16:55;;;;;;;0.90;0.35;;;24.00;36.50;;;;;;5018054;28;20052;-80
2022/07/03 08:19:20;;;;;;;2.03;0.20;;;23.80;34.30;;;;;;5001121;28;20040;-80
2022/07/03 08:21:46;;;;;;;2.05;0.30;;;23.80;35.40;;;;;;5035116;28;20437;-80
2022/07/03 08:24:12;;;;;;;0.57;0.20;;;23.80;34.90;;;;;;5034331;28;20025;-80
2022/07/03 08:26:39;;;;;;;2.88;0.60;;;24.00;35.60;;;;;;5001978;28;20516;-81
2022/07/03 08:29:05;;;;;;;0.60;0.40;;;24.10;35.70;;;;;;5018036;28;20070;-80
2022/07/03 08:31:56;;;;;;;1.33;0.68;;;24.20;36.30;;;;;;5035629;28;20026;-80
2022/07/03 08:34:26;;;;;;;1.42;0.22;;;24.30;36.30;;;;;;5035756;28;20029;-79
2022/07/03 08:36:52;;;;;;;1.42;0.40;;;24.40;36.30;;;;;;5017856;28;20385;-80
2022/07/03 08:39:22;;;;;;;0.95;0.57;;;24.40;36.20;;;;;;5017558;28;20040;-79
2022/07/03 08:41:49;;;;;;;1.20;0.40;;;24.40;36.00;;;;;;5035411;28;20024;-79
2022/07/03 08:44:22;;;;;;;1.27;0.40;;;24.40;35.00;;;;;;5003541;28;20169;-80
2022/07/03 08:46:51;;;;;;;0.90;0.45;;;24.50;34.60;;;;;;5017809;28;20057;-81
2022/07/03 08:49:19;;;;;;;0.22;0.22;;;24.50;34.60;;;;;;5017351;28;20060;-79
2022/07/03 08:51:45;;;;;;;2.00;0.40;;;24.60;35.00;;;;;;5000860;28;20582;-79
2022/07/03 08:54:12;;;;;;;2.88;0.30;;;24.60;33.30;;;;;;5033285;28;20037;-79
2022/07/03 08:56:45;;;;;;;3.83;0.52;;;24.60;33.60;;;;;;5035472;28;20033;-79
2022/07/03 08:59:21;;;;;;;3.03;0.30;;;24.50;32.30;;;;;;4995996;28;20709;-79
2022/07/03 09:01:47;;;;;;;2.53;0.30;;;24.50;33.30;;;;;;5001630;28;20116;-79
2022/07/03 09:04:13;;;;;;;5.00;0.77;;;24.60;32.60;;;;;;5033701;28;20128;-80
2022/07/03 09:06:40;;;;;;;4.88;3.28;;;24.60;34.00;;;;;;5033378;28;20429;-79
2022/07/03 09:09:10;;;;;;;0.45;0.45;;;24.70;34.60;;;;;;5036618;28;20091;-79
2022/07/03 09:11:40;;;;;;;1.52;0.40;;;24.80;34.20;;;;;;5014041;28;20041;-80
2022/07/03 09:14:08;;;;;;;0.90;0.60;;;24.90;33.70;;;;;;5039733;28;20041;-78
2022/07/03 09:16:37;;;;;;;1.38;0.57;;;25.00;33.70;;;;;;5039387;28;20022;-78
2022/07/03 09:19:05;;;;;;;2.65;0.75;;;25.10;34.80;;;;;;5010062;28;20029;-78
2022/07/03 09:21:42;;;;;;;0.60;0.43;;;25.10;34.10;;;;;;5034603;28;20505;-78
2022/07/03 09:24:20;;;;;;;2.20;0.30;;;25.20;34.10;;;;;;5016972;28;20026;-80
2022/07/03 09:26:52;;;;;;;1.23;0.38;;;25.40;34.70;;;;;;5018265;28;20025;-81
2022/07/03 09:29:19;;;;;;;0.57;0.30;;;25.50;33.10;;;;;;5033204;28;20033;-82
2022/07/03 09:32:04;;;;;;;2.65;0.50;;;25.40;32.70;;;;;;5037179;28;20355;-83
2022/07/03 09:35:14;;;;;;;0.75;0.50;;;25.40;34.30;;;;;;5010415;28;20036;-82
2022/07/03 09:38:04;;;;;;;1.98;0.60;;;25.50;34.30;;;;;;5038551;28;20038;-81
2022/07/03 09:41:20;;;;;;;3.47;0.50;;;25.60;34.70;;;;;;5033741;28;20040;-86
2022/07/03 09:44:45;;;;;;;1.80;0.50;;;25.70;33.70;;;;;;4952217;29;20043;-84
2022/07/03 09:47:41;;;;;;;0.47;0.38;;;25.80;33.80;;;;;;4937614;29;20099;-89
2022/07/03 09:50:12;;;;;;;1.58;0.65;;;25.80;34.00;;;;;;4938294;29;20035;-79
2022/07/03 09:52:39;;;;;;;0.80;0.60;;;25.90;34.60;;;;;;4954550;29;20030;-80
2022/07/03 09:55:17;;;;;;;0.50;0.30;;;26.00;34.30;;;;;;5009992;28;20044;-78
2022/07/03 09:57:49;;;;;;;0.88;0.30;;;26.10;33.10;;;;;;5015695;28;20021;-81
2022/07/03 10:00:20;;;;;;;23.30;3.88;;;26.10;33.90;;;;;;5033565;28;20044;-79
2022/07/03 10:03:21;;;;;;;1.27;0.63;;;26.20;33.40;;;;;;5017640;28;20469;-79
2022/07/03 10:05:46;;;;;;;1.35;0.70;;;26.20;32.90;;;;;;5015558;28;20367;-78
2022/07/03 10:08:15;;;;;;;1.40;0.38;;;26.30;33.20;;;;;;5032327;28;20028;-79
2022/07/03 10:10:46;;;;;;;0.98;0.50;;;26.40;34.20;;;;;;5016418;28;20053;-79
2022/07/03 10:13:12;;;;;;;2.75;0.52;;;26.50;33.10;;;;;;5015855;28;20033;-79
2022/07/03 10:15:42;;;;;;;1.85;0.47;;;26.60;32.70;;;;;;5033909;28;20100;-81
2022/07/03 10:18:20;;;;;;;2.33;0.63;;;26.60;33.00;;;;;;4999221;28;20033;-80
2022/07/03 10:21:11;;;;;;;1.17;0.30;;;26.80;33.60;;;;;;5016144;28;20025;-80
2022/07/03 10:23:43;;;;;;;1.25;0.40;;;26.70;31.70;;;;;;4975805;28;20030;-79
2022/07/03 10:26:23;;;;;;;1.40;0.52;;;26.70;30.20;;;;;;4976325;28;20594;-79
2022/07/03 10:28:51;;;;;;;2.58;0.38;;;26.90;30.90;;;;;;4945424;28;20042;-79
2022/07/03 10:31:19;;;;;;;1.27;0.40;;;27.20;32.00;;;;;;4964077;28;20447;-78
2022/07/03 10:33:46;;;;;;;1.50;0.70;;;27.00;32.30;;;;;;4960748;28;20031;-79
2022/07/03 10:36:16;;;;;;;1.85;0.30;;;27.20;31.70;;;;;;4975606;28;20034;-80
2022/07/03 10:39:10;;;;;;;1.17;0.60;;;27.50;31.10;;;;;;4959595;28;20051;-84
2022/07/03 10:47:52;;;;;;;2.42;0.22;;;27.60;30.20;;;;;;4991763;28;20049;-80
2022/07/03 10:50:23;;;;;;;2.03;0.50;;;27.40;28.20;;;;;;4975257;28;20407;-79
2022/07/03 10:52:50;;;;;;;0.47;0.35;;;27.60;28.90;;;;;;4975637;28;20121;-78
2022/07/03 10:55:19;;;;;;;1.38;0.50;;;27.90;30.30;;;;;;5007105;28;20041;-79
2022/07/03 10:58:08;;;;;;;2.30;0.40;;;28.00;29.40;;;;;;5015687;28;20047;-82
2022/07/03 11:00:56;;;;;;;1.17;0.38;;;28.10;28.80;;;;;;5033442;28;20033;-78
2022/07/03 11:03:57;;;;;;;1.17;0.40;;;28.20;29.50;;;;;;5011268;28;20022;-78
2022/07/03 11:06:42;;;;;;;0.30;0.30;;;28.40;28.20;;;;;;5015211;28;20060;-78
2022/07/03 11:09:10;;;;;;;2.08;0.30;;;28.40;28.40;;;;;;5015061;28;20022;-77
2022/07/03 11:11:59;;;;;;;1.35;0.50;;;28.40;27.30;;;;;;5014807;28;20045;-77
2022/07/03 11:14:29;;;;;;;0.57;0.40;;;28.40;27.70;;;;;;5031754;28;20034;-77
2022/07/03 11:17:20;;;;;;;1.50;0.30;;;28.40;27.50;;;;;;5014076;28;20025;-78
2022/07/03 11:22:57;;;;;;;0.20;0.20;;;28.50;28.00;;;;;;5017545;28;20048;-79
2022/07/03 11:25:25;;;;;;;0.63;0.40;;;28.70;26.80;;;;;;5015099;28;20041;-78
2022/07/03 11:27:55;;;;;;;2.80;0.47;;;28.80;26.50;;;;;;5016334;28;20044;-78
2022/07/03 11:30:25;;;;;;;1.25;0.40;;;28.90;27.80;;;;;;5031281;28;20061;-78
2022/07/03 11:32:57;;;;;;;1.00;0.50;;;28.80;27.70;;;;;;5033303;28;20436;-79
2022/07/03 11:35:51;;;;;;;0.70;0.40;;;29.00;29.60;;;;;;5032596;28;20549;-78
2022/07/03 11:38:22;;;;;;;1.10;0.40;;;28.70;25.20;;;;;;5015099;28;20022;-78
2022/07/03 11:40:51;;;;;;;3.25;0.70;;;28.00;26.80;;;;;;5014893;28;20026;-78
2022/07/03 11:43:18;;;;;;;1.92;0.57;;;28.30;26.70;;;;;;5014816;28;20414;-78
2022/07/03 11:45:45;;;;;;;1.25;0.40;;;28.50;27.60;;;;;;5014841;28;20032;-79
2022/07/03 11:48:16;;;;;;;3.75;0.57;;;28.80;26.60;;;;;;5032490;28;20029;-78
2022/07/03 11:50:44;;;;;;;1.80;0.30;;;29.10;26.00;;;;;;5014464;28;20034;-78
2022/07/03 11:53:21;;;;;;;0.55;0.40;;;29.20;27.40;;;;;;4997979;28;20125;-78
2022/07/03 11:55:58;;;;;;;0.88;0.38;;;29.30;26.30;;;;;;5014454;28;20030;-78
2022/07/03 11:58:25;;;;;;;2.55;0.57;;;29.40;24.90;;;;;;5014667;28;20022;-78
2022/07/03 12:00:52;;;;;;;1.02;0.68;;;29.60;25.20;;;;;;5014718;28;20026;-78
2022/07/03 12:03:26;;;;;;;0.93;0.50;;;29.70;24.50;;;;;;5014848;28;20022;-77
2022/07/03 12:05:55;;;;;;;2.15;0.57;;;29.60;24.90;;;;;;5031404;28;20033;-78
2022/07/03 12:08:23;;;;;;;1.35;0.60;;;29.60;25.50;;;;;;4998208;28;20053;-78
2022/07/03 12:10:49;;;;;;;1.45;0.40;;;29.80;23.80;;;;;;4998290;28;20051;-77
2022/07/03 12:13:23;;;;;;;0.65;0.40;;;29.80;24.10;;;;;;5014594;28;20025;-75
2022/07/03 12:15:49;;;;;;;1.98;0.30;;;29.60;25.80;;;;;;5014540;28;20060;-74
2022/07/03 12:18:15;;;;;;;0.95;0.38;;;29.70;26.20;;;;;;5030571;28;20079;-75
2022/07/03 12:20:41;;;;;;;3.58;0.55;;;29.80;25.60;;;;;;5014804;28;20373;-76
2022/07/03 12:23:09;;;;;;;1.30;0.40;;;29.70;23.70;;;;;;5030608;28;20025;-75
2022/07/03 12:25:42;;;;;;;2.08;0.38;;;29.70;23.40;;;;;;5014180;28;20026;-76
2022/07/03 12:28:13;;;;;;;0.90;0.40;;;29.60;25.30;;;;;;5015580;28;20029;-77
2022/07/03 12:30:39;;;;;;;1.33;0.45;;;29.70;26.30;;;;;;5035740;28;20037;-76
2022/07/03 12:33:06;;;;;;;1.10;0.45;;;29.80;25.80;;;;;;5034689;28;20037;-77
2022/07/03 12:35:31;;;;;;;2.55;0.60;;;29.90;25.00;;;;;;5034650;28;20030;-75
2022/07/03 12:37:58;;;;;;;0.60;0.32;;;29.90;23.70;;;;;;5048972;28;20022;-78
2022/07/03 12:40:24;;;;;;;1.33;0.43;;;30.20;24.80;;;;;;5021667;28;20040;-79
2022/07/03 12:42:52;;;;;;;1.40;0.43;;;30.20;24.30;;;;;;5036973;28;20021;-77
2022/07/03 12:45:24;;;;;;;3.38;0.65;;;30.20;23.60;;;;;;5018560;28;20025;-76
2022/07/03 12:48:04;;;;;;;1.58;0.60;;;30.20;23.90;;;;;;5001783;28;20056;-74
2022/07/03 12:50:54;;;;;;;0.90;0.38;;;30.10;23.70;;;;;;5017460;28;20037;-76
2022/07/03 12:53:32;;;;;;;0.80;0.50;;;30.30;25.00;;;;;;5018033;28;20083;-76
2022/07/03 12:56:05;;;;;;;1.55;0.47;;;30.50;24.30;;;;;;5017592;28;20394;-76
2022/07/03 13:01:39;;;;;;;0.75;0.60;;;30.60;23.30;;;;;;5035947;28;20029;-75
2022/07/03 13:04:08;;;;;;;3.95;0.55;;;30.90;22.30;;;;;;5034629;28;20033;-75
2022/07/03 13:06:34;;;;;;;1.15;0.43;;;31.10;22.50;;;;;;5017246;28;20037;-77
2022/07/03 13:09:04;;;;;;;2.40;0.60;;;31.20;21.70;;;;;;5017227;28;20029;-77
2022/07/03 13:11:41;;;;;;;6.82;0.70;;;31.30;21.50;;;;;;5016798;28;20049;-76
2022/07/03 13:14:14;;;;;;;2.33;0.82;;;30.90;22.20;;;;;;5017331;28;20192;-76
2022/07/03 13:16:50;;;;;;;1.15;0.50;;;31.00;22.80;;;;;;5017190;28;20049;-76
2022/07/03 13:19:21;;;;;;;3.15;0.50;;;30.90;23.10;;;;;;5016893;28;20026;-75
2022/07/03 13:21:47;;;;;;;2.03;0.55;;;30.80;21.60;;;;;;5016961;28;20109;-76
2022/07/03 13:24:17;;;;;;;1.00;0.40;;;30.60;23.20;;;;;;5016639;28;20027;-76